createdAt,value
2023-04-07T00:00:18.145Z,101374.91
2023-04-07T00:02:47.132Z,101358.69
2023-04-07T00:05:15.621Z,101372.19
2023-04-07T00:07:55.867Z,101370.25
2023-04-07T00:10:25.937Z,101370.25
2023-04-07T00:12:54.250Z,101367.91
2023-04-07T00:15:22.570Z,101374.91
2023-04-07T00:17:50.998Z,101380.31
2023-04-07T00:20:19.423Z,101364.84
2023-04-07T00:22:49.807Z,101369.50
2023-04-07T00:25:18.188Z,101376.44
2023-04-07T00:27:46.450Z,101368.34
2023-04-07T00:30:15.336Z,101374.53
2023-04-07T00:32:43.529Z,101369.59
2023-04-07T00:35:13.848Z,101376.28
2023-04-07T00:37:42.091Z,101372.00
2023-04-07T00:40:12.748Z,101377.84
2023-04-07T00:42:41.025Z,101379.75
2023-04-07T00:45:11.480Z,101374.34
2023-04-07T00:47:40.017Z,101369.75
2023-04-07T00:50:09.899Z,101368.28
2023-04-07T00:52:38.381Z,101379.84
2023-04-07T00:55:07.729Z,101377.63
2023-04-07T00:57:37.742Z,101376.84
2023-04-07T01:00:07.853Z,101374.44
2023-04-07T01:02:43.591Z,101370.19
2023-04-07T01:05:19.556Z,101372.91
2023-04-07T01:07:59.438Z,101372.91
2023-04-07T01:10:35.662Z,101370.53
2023-04-07T01:13:12.310Z,101372.00
2023-04-07T01:15:41.913Z,101377.38
2023-04-07T01:18:15.187Z,101367.38
2023-04-07T01:20:47.302Z,101371.50
2023-04-07T01:23:26.663Z,101372.63
2023-04-07T01:26:19.154Z,101379.94
2023-04-07T01:29:26.073Z,101376.44
2023-04-07T01:31:57.192Z,101385.69
2023-04-07T01:34:27.085Z,101384.91
2023-04-07T01:36:56.664Z,101382.53
2023-04-07T01:39:26.312Z,101380.94
2023-04-07T01:41:55.844Z,101379.69
2023-04-07T01:44:25.414Z,101389.25
2023-04-07T01:46:55.688Z,101383.38
2023-04-07T01:49:25.074Z,101397.66
2023-04-07T01:51:53.669Z,101385.41
2023-04-07T01:54:22.934Z,101380.00
2023-04-07T01:56:51.206Z,101388.13
2023-04-07T01:59:19.411Z,101389.69
2023-04-07T02:01:48.048Z,101377.69
2023-04-07T02:04:27.240Z,101385.28
2023-04-07T02:07:04.084Z,101378.97
2023-04-07T02:09:34.195Z,101381.97
2023-04-07T02:12:05.760Z,101386.16
2023-04-07T02:14:34.741Z,101384.91
2023-04-07T02:17:03.940Z,101386.78
2023-04-07T02:19:34.752Z,101394.09
2023-04-07T02:22:05.154Z,101400.16
2023-04-07T02:24:33.383Z,101400.81
2023-04-07T02:27:02.319Z,101395.28
2023-04-07T02:29:30.554Z,101389.72
2023-04-07T02:31:58.832Z,101392.63
2023-04-07T02:34:27.048Z,101402.94
2023-04-07T02:36:56.652Z,101397.88
2023-04-07T02:39:24.846Z,101395.53
2023-04-07T02:41:53.195Z,101398.41
2023-04-07T02:44:21.361Z,101399.03
2023-04-07T02:46:49.533Z,101396.69
2023-04-07T02:49:17.705Z,101396.56
2023-04-07T02:51:46.961Z,101389.41
2023-04-07T02:54:16.647Z,101393.09
2023-04-07T02:56:44.858Z,101393.25
2023-04-07T02:59:13.032Z,101404.53
2023-04-07T03:01:41.359Z,101403.75
2023-04-07T03:04:09.724Z,101408.03
2023-04-07T03:06:37.940Z,101399.94
2023-04-07T03:09:06.699Z,101407.69
2023-04-07T03:11:36.460Z,101409.28
2023-04-07T03:14:04.696Z,101408.50
2023-04-07T03:16:32.905Z,101412.75
2023-04-07T03:19:01.182Z,101411.66
2023-04-07T03:21:29.536Z,101417.84
2023-04-07T03:23:57.722Z,101420.53
2023-04-07T03:26:25.928Z,101427.97
2023-04-07T03:28:55.531Z,101430.25
2023-04-07T03:31:23.925Z,101427.84
2023-04-07T03:33:52.574Z,101426.25
2023-04-07T03:36:21.175Z,101420.06
2023-04-07T03:38:49.629Z,101417.25
2023-04-07T03:41:17.887Z,101419.44
2023-04-07T03:43:46.828Z,101423.28
2023-04-07T03:46:16.532Z,101411.69
2023-04-07T03:48:44.766Z,101420.91
2023-04-07T03:51:13.212Z,101419.63
2023-04-07T03:53:41.406Z,101419.50
2023-04-07T03:56:09.717Z,101427.75
2023-04-07T03:58:37.953Z,101416.97
2023-04-07T04:01:06.277Z,101419.66
2023-04-07T04:03:36.842Z,101422.38
2023-04-07T04:06:05.907Z,101426.97
2023-04-07T04:08:34.117Z,101433.94
2023-04-07T04:11:02.324Z,101429.34
2023-04-07T04:13:30.691Z,101426.34
2023-04-07T04:15:59.085Z,101433.34
2023-04-07T04:18:27.304Z,101432.97
2023-04-07T04:20:57.139Z,101429.84
2023-04-07T04:23:25.342Z,101439.34
2023-04-07T04:25:53.558Z,101436.31
2023-04-07T04:28:21.763Z,101439.78
2023-04-07T04:30:50.239Z,101445.19
2023-04-07T04:33:18.487Z,101436.63
2023-04-07T04:35:47.513Z,101439.34
2023-04-07T04:38:17.752Z,101452.00
2023-04-07T04:40:46.262Z,101449.63
2023-04-07T04:43:14.467Z,101440.41
2023-04-07T04:45:42.666Z,101454.69
2023-04-07T04:48:11.105Z,101458.22
2023-04-07T04:50:39.333Z,101462.50
2023-04-07T04:53:07.602Z,101457.91
2023-04-07T04:55:37.244Z,101462.19
2023-04-07T04:58:05.543Z,101466.09
2023-04-07T05:00:33.815Z,101472.00
2023-04-07T05:03:03.434Z,101474.69
2023-04-07T05:05:31.855Z,101470.88
2023-04-07T05:08:00.163Z,101474.03
2023-04-07T05:10:28.410Z,101478.66
2023-04-07T05:12:58.018Z,101488.00
2023-04-07T05:15:26.379Z,101482.59
2023-04-07T05:17:54.783Z,101488.00
2023-04-07T05:20:23.074Z,101488.00
2023-04-07T05:22:51.256Z,101489.63
2023-04-07T05:25:19.699Z,101492.31
2023-04-07T05:27:47.864Z,101498.16
2023-04-07T05:30:18.205Z,101485.78
2023-04-07T05:32:46.612Z,101487.34
2023-04-07T05:35:15.498Z,101492.75
2023-04-07T05:37:43.753Z,101498.16
2023-04-07T05:40:13.199Z,101494.66
2023-04-07T05:42:41.425Z,101497.03
2023-04-07T05:45:11.705Z,101496.25
2023-04-07T05:47:41.600Z,101496.59
2023-04-07T05:50:12.285Z,101496.25
2023-04-07T05:52:40.479Z,101504.00
2023-04-07T05:55:09.896Z,101509.41
2023-04-07T05:57:38.153Z,101504.00
2023-04-07T06:00:07.966Z,101500.53
2023-04-07T06:02:37.217Z,101504.00
2023-04-07T06:05:07.795Z,101508.28
2023-04-07T06:07:36.062Z,101506.72
2023-04-07T06:10:04.648Z,101515.31
2023-04-07T06:12:32.997Z,101508.78
2023-04-07T06:15:01.352Z,101506.09
2023-04-07T06:17:29.694Z,101516.09
2023-04-07T06:19:57.889Z,101518.47
2023-04-07T06:22:27.487Z,101516.88
2023-04-07T06:24:55.713Z,101522.28
2023-04-07T06:27:23.943Z,101526.25
2023-04-07T06:29:52.201Z,101528.59
2023-04-07T06:32:20.484Z,101533.19
2023-04-07T06:34:48.714Z,101533.97
2023-04-07T06:37:17.167Z,101534.78
2023-04-07T06:39:46.942Z,101534.47
2023-04-07T06:42:15.494Z,101530.34
2023-04-07T06:44:43.771Z,101528.09
2023-04-07T06:47:12.255Z,101540.53
2023-04-07T06:49:40.521Z,101540.16
2023-04-07T06:52:08.772Z,101553.00
2023-04-07T06:54:36.984Z,101548.41
2023-04-07T06:57:11.757Z,101551.59
2023-04-07T06:59:39.990Z,101551.28
2023-04-07T07:02:08.785Z,101551.72
2023-04-07T07:04:37.138Z,101559.19
2023-04-07T07:07:05.346Z,101556.50
2023-04-07T07:09:33.631Z,101561.56
2023-04-07T07:12:04.154Z,101562.81
2023-04-07T07:14:34.067Z,101563.94
2023-04-07T07:17:02.802Z,101561.25
2023-04-07T07:19:30.981Z,101569.84
2023-04-07T07:21:59.204Z,101567.56
2023-04-07T07:24:29.195Z,101569.50
2023-04-07T07:26:57.846Z,101579.16
2023-04-07T07:29:26.049Z,101574.56
2023-04-07T07:31:56.275Z,101574.56
2023-04-07T07:34:24.650Z,101578.50
2023-04-07T07:36:52.938Z,101578.69
2023-04-07T07:39:21.222Z,101585.81
2023-04-07T07:41:51.916Z,101583.25
2023-04-07T07:44:21.184Z,101582.97
2023-04-07T07:46:49.539Z,101584.50
2023-04-07T07:49:19.249Z,101586.09
2023-04-07T07:51:47.519Z,101592.28
2023-04-07T07:54:15.782Z,101591.63
2023-04-07T07:56:44.021Z,101594.03
2023-04-07T07:59:12.241Z,101603.38
2023-04-07T08:01:40.542Z,101599.56
2023-04-07T08:04:09.026Z,101604.34
2023-04-07T08:06:38.871Z,101602.88
2023-04-07T08:09:07.309Z,101604.78
2023-04-07T08:11:35.701Z,101606.38
2023-04-07T08:14:03.968Z,101616.53
2023-04-07T08:16:32.297Z,101623.03
2023-04-07T08:19:00.595Z,101617.50
2023-04-07T08:21:31.765Z,101625.16
2023-04-07T08:24:01.149Z,101621.97
2023-04-07T08:26:29.418Z,101616.88
2023-04-07T08:28:58.517Z,101630.38
2023-04-07T08:31:26.791Z,101630.38
2023-04-07T08:33:58.106Z,101632.66
2023-04-07T08:36:27.977Z,101633.28
2023-04-07T08:38:56.923Z,101636.97
2023-04-07T08:41:32.638Z,101647.63
2023-04-07T08:44:02.757Z,101643.31
2023-04-07T08:46:31.845Z,101640.44
2023-04-07T08:49:02.034Z,101646.66
2023-04-07T08:51:32.283Z,101646.22
2023-04-07T08:54:11.542Z,101652.72
2023-04-07T08:56:42.258Z,101647.31
2023-04-07T08:59:13.627Z,101660.03
2023-04-07T09:01:42.901Z,101656.53
2023-04-07T09:04:12.077Z,101651.16
2023-04-07T09:06:40.456Z,101668.25
2023-04-07T09:09:08.705Z,101664.44
2023-04-07T09:11:41.059Z,101672.72
2023-04-07T09:14:09.309Z,101663.50
2023-04-07T09:16:37.816Z,101673.31
2023-04-07T09:19:06.381Z,101675.09
2023-04-07T09:21:50.371Z,101676.00
2023-04-07T09:24:27.160Z,101680.13
2023-04-07T09:27:16.554Z,101674.22
2023-04-07T09:29:47.619Z,101679.75
2023-04-07T09:32:38.852Z,101682.13
2023-04-07T09:35:07.881Z,101678.81
2023-04-07T09:37:36.228Z,101673.06
2023-04-07T09:40:05.742Z,101672.75
2023-04-07T09:42:37.966Z,101665.88
2023-04-07T09:45:07.226Z,101669.88
2023-04-07T09:47:35.521Z,101669.66
2023-04-07T09:50:07.007Z,101666.78
2023-04-07T09:52:53.684Z,101667.72
2023-04-07T09:55:24.070Z,101677.91
2023-04-07T09:57:55.417Z,101675.66
2023-04-07T10:00:24.137Z,101678.81
2023-04-07T10:02:53.153Z,101681.53
2023-04-07T10:05:22.396Z,101680.28
2023-04-07T10:07:50.668Z,101679.47
2023-04-07T10:10:18.893Z,101680.28
2023-04-07T10:12:47.355Z,101669.47
2023-04-07T10:15:17.542Z,101675.66
2023-04-07T10:17:49.244Z,101682.19
2023-04-07T10:20:21.231Z,101684.22
2023-04-07T10:22:54.670Z,101680.88
2023-04-07T10:25:25.789Z,101685.63
2023-04-07T10:27:56.358Z,101685.91
2023-04-07T10:30:29.649Z,101689.19
2023-04-07T10:32:58.043Z,101684.41
2023-04-07T10:35:26.685Z,101692.97
2023-04-07T10:38:15.261Z,101690.88
2023-04-07T10:40:44.336Z,101691.34
2023-04-07T10:43:13.782Z,101691.81
2023-04-07T10:45:59.756Z,101696.56
2023-04-07T10:48:33.226Z,101693.56
2023-04-07T10:51:18.936Z,101703.69
2023-04-07T10:54:17.700Z,101697.63
2023-04-07T10:57:14.454Z,101691.09
2023-04-07T11:00:17.307Z,101696.97
2023-04-07T11:02:47.860Z,101694.59
2023-04-07T11:05:23.949Z,101695.38
2023-04-07T11:07:57.777Z,101701.13
2023-04-07T11:10:26.507Z,101696.03
2023-04-07T11:13:07.541Z,101701.13
2023-04-07T11:15:40.321Z,101703.84
2023-04-07T11:18:16.825Z,101708.91
2023-04-07T11:20:49.165Z,101712.06
2023-04-07T11:23:19.241Z,101715.25
2023-04-07T11:25:50.884Z,101712.53
2023-04-07T11:28:19.804Z,101714.13
2023-04-07T11:30:51.879Z,101712.69
2023-04-07T11:33:24.155Z,101722.38
2023-04-07T11:35:55.974Z,101712.53
2023-04-07T11:38:28.354Z,101727.19
2023-04-07T11:40:57.911Z,101724.47
2023-04-07T11:43:28.419Z,101724.03
2023-04-07T11:46:08.653Z,101722.44
2023-04-07T11:48:41.755Z,101732.03
2023-04-07T11:51:18.508Z,101730.75
2023-04-07T11:53:48.144Z,101732.22
2023-04-07T11:56:18.845Z,101734.13
2023-04-07T11:58:51.395Z,101736.03
2023-04-07T12:01:19.974Z,101733.78
2023-04-07T12:04:02.363Z,101737.72
2023-04-07T12:06:34.890Z,101743.16
2023-04-07T12:09:03.818Z,101744.72
2023-04-07T12:11:32.763Z,101746.34
2023-04-07T12:14:01.332Z,101744.09
2023-04-07T12:16:29.593Z,101753.00
2023-04-07T12:18:59.388Z,101756.50
2023-04-07T12:21:27.688Z,101754.56
2023-04-07T12:23:56.044Z,101756.50
2023-04-07T12:26:25.605Z,101765.06
2023-04-07T12:28:53.917Z,101763.47
2023-04-07T12:31:22.171Z,101772.75
2023-04-07T12:33:50.566Z,101767.34
2023-04-07T12:36:21.082Z,101773.88
2023-04-07T12:38:49.636Z,101773.69
2023-04-07T12:41:17.894Z,101782.47
2023-04-07T12:43:47.047Z,101780.13
2023-04-07T12:46:15.620Z,101787.09
2023-04-07T12:48:44.000Z,101787.91
2023-04-07T12:51:12.252Z,101792.50
2023-04-07T12:53:41.844Z,101794.88
2023-04-07T12:56:10.095Z,101795.69
2023-04-07T12:58:38.432Z,101788.34
2023-04-07T13:01:07.423Z,101788.03
2023-04-07T13:03:36.264Z,101790.09
2023-04-07T13:06:05.244Z,101798.31
2023-04-07T13:08:33.540Z,101781.78
2023-04-07T13:11:03.725Z,101785.63
2023-04-07T13:13:32.415Z,101789.41
2023-04-07T13:16:00.962Z,101785.63
2023-04-07T13:18:29.276Z,101781.00
2023-04-07T13:23:28.751Z,101779.72
2023-04-07T13:25:57.045Z,101788.78
2023-04-07T13:28:26.747Z,101791.16
2023-04-07T13:30:55.123Z,101787.66
2023-04-07T13:33:23.397Z,101794.53
2023-04-07T13:35:51.630Z,101794.41
2023-04-07T13:38:19.833Z,101795.34
2023-04-07T13:40:49.618Z,101795.22
2023-04-07T13:43:19.112Z,101799.06
2023-04-07T13:45:49.439Z,101800.16
2023-04-07T13:48:17.751Z,101801.78
2023-04-07T13:50:46.180Z,101794.75
2023-04-07T13:53:15.505Z,101799.88
2023-04-07T13:55:45.402Z,101801.09
2023-04-07T13:58:13.678Z,101800.47
2023-04-07T14:00:42.452Z,101807.94
2023-04-07T14:03:12.160Z,101801.38
2023-04-07T14:05:43.272Z,101800.75
2023-04-07T14:08:11.864Z,101798.94
2023-04-07T14:10:42.140Z,101794.13
2023-04-07T14:13:10.893Z,101796.03
2023-04-07T14:15:39.513Z,101794.03
2023-04-07T14:18:07.997Z,101786.59
2023-04-07T14:20:38.079Z,101794.69
2023-04-07T14:23:06.439Z,101793.38
2023-04-07T14:25:34.722Z,101797.78
2023-04-07T14:28:02.996Z,101800.66
2023-04-07T14:30:32.319Z,101800.44
2023-04-07T14:33:02.500Z,101799.75
2023-04-07T14:35:32.400Z,101797.81
2023-04-07T14:38:02.336Z,101807.44
2023-04-07T14:40:30.648Z,101806.97
2023-04-07T14:45:30.574Z,101804.56
2023-04-07T14:47:58.941Z,101801.41
2023-04-07T14:50:27.365Z,101802.91
2023-04-07T14:52:55.754Z,101807.81
2023-04-07T14:55:25.737Z,101811.66
2023-04-07T14:57:53.999Z,101813.13
2023-04-07T15:00:22.493Z,101814.25
2023-04-07T15:02:55.206Z,101808.06
2023-04-07T15:05:23.626Z,101812.66
2023-04-07T15:07:52.525Z,101805.66
2023-04-07T15:10:21.615Z,101813.47
2023-04-07T15:12:51.296Z,101813.47
2023-04-07T15:15:19.805Z,101818.88
2023-04-07T15:17:48.108Z,101822.69
2023-04-07T15:20:16.483Z,101823.03
2023-04-07T15:22:44.799Z,101817.94
2023-04-07T15:25:13.032Z,101817.16
2023-04-07T15:27:41.272Z,101819.53
2023-04-07T15:30:12.251Z,101830.34
2023-04-07T15:32:40.637Z,101828.09
2023-04-07T15:35:10.017Z,101825.72
2023-04-07T15:37:38.538Z,101822.22
2023-04-07T15:40:08.868Z,101820.31
2023-04-07T15:42:41.713Z,101833.06
2023-04-07T15:45:12.763Z,101837.69
2023-04-07T15:47:41.046Z,101826.06
2023-04-07T15:50:11.024Z,101834.97
2023-04-07T15:52:39.247Z,101838.81
2023-04-07T15:55:08.451Z,101837.22
2023-04-07T15:57:36.878Z,101844.75
2023-04-07T16:00:06.417Z,101836.50
2023-04-07T16:02:36.181Z,101842.09
2023-04-07T16:05:04.681Z,101839.72
2023-04-07T16:07:32.959Z,101851.22
2023-04-07T16:10:01.173Z,101842.63
2023-04-07T16:12:29.383Z,101847.91
2023-04-07T16:14:57.640Z,101842.34
2023-04-07T16:17:25.986Z,101844.16
2023-04-07T16:19:55.728Z,101842.53
2023-04-07T16:22:23.910Z,101851.47
2023-04-07T16:24:52.209Z,101854.47
2023-04-07T16:27:20.517Z,101858.78
2023-04-07T16:29:48.742Z,101857.19
2023-04-07T16:32:17.022Z,101863.72
2023-04-07T16:34:45.348Z,101872.31
2023-04-07T16:37:15.179Z,101859.91
2023-04-07T16:39:43.382Z,101865.31
2023-04-07T16:42:12.078Z,101869.59
2023-04-07T16:44:40.269Z,101878.19
2023-04-07T16:47:08.523Z,101880.91
2023-04-07T16:49:38.031Z,101877.41
2023-04-07T16:52:06.404Z,101886.69
2023-04-07T16:54:37.181Z,101886.97
2023-04-07T16:57:05.543Z,101900.50
2023-04-07T16:59:34.554Z,101900.84
2023-04-07T17:02:09.262Z,101905.44
2023-04-07T17:04:37.817Z,101904.00
2023-04-07T17:07:07.463Z,101910.22
2023-04-07T17:09:37.431Z,101905.13
2023-04-07T17:12:07.034Z,101909.28
2023-04-07T17:14:35.749Z,101910.69
2023-04-07T17:17:04.010Z,101905.97
2023-04-07T17:19:32.318Z,101910.13
2023-04-07T17:22:00.540Z,101918.22
2023-04-07T17:24:28.790Z,101916.63
2023-04-07T17:26:58.376Z,101929.06
2023-04-07T17:29:29.206Z,101924.44
2023-04-07T17:31:57.707Z,101923.66
2023-04-07T17:34:26.156Z,101930.66
2023-04-07T17:36:54.384Z,101928.41
2023-04-07T17:39:22.675Z,101932.22
2023-04-07T17:41:51.818Z,101944.19
2023-04-07T17:44:21.551Z,101945.31
2023-04-07T17:46:49.880Z,101940.53
2023-04-07T17:49:19.338Z,101948.19
2023-04-07T17:51:47.570Z,101941.97
2023-04-07T17:54:16.333Z,101955.81
2023-04-07T17:56:44.597Z,101956.63
2023-04-07T17:59:12.790Z,101956.47
2023-04-07T18:01:43.644Z,101952.97
2023-04-07T18:04:13.113Z,101954.09
2023-04-07T18:06:41.478Z,101953.31
2023-04-07T18:09:10.195Z,101953.94
2023-04-07T18:11:38.436Z,101958.53
2023-04-07T18:14:06.735Z,101955.69
2023-04-07T18:16:35.366Z,101963.03
2023-04-07T18:19:05.157Z,101958.41
2023-04-07T18:21:35.104Z,101961.44
2023-04-07T18:24:03.522Z,101966.03
2023-04-07T18:26:31.927Z,101971.47
2023-04-07T18:29:01.529Z,101971.00
2023-04-07T18:31:29.973Z,101978.31
2023-04-07T18:33:58.234Z,101987.84
2023-04-07T18:36:28.154Z,101980.50
2023-04-07T18:38:56.360Z,101994.38
2023-04-07T18:41:24.605Z,101991.22
2023-04-07T18:43:52.862Z,101988.84
2023-04-07T18:46:21.552Z,101993.44
2023-04-07T18:48:49.800Z,102002.34
2023-04-07T18:51:18.147Z,102006.97
2023-04-07T18:53:48.091Z,102007.25
2023-04-07T18:56:16.800Z,102005.69
2023-04-07T18:58:45.856Z,102013.47
2023-04-07T19:01:14.184Z,102013.47
2023-04-07T19:03:42.830Z,102019.53
2023-04-07T19:06:14.653Z,102028.78
2023-04-07T19:08:42.972Z,102032.25
2023-04-07T19:11:12.877Z,102040.03
2023-04-07T19:13:41.676Z,102042.75
2023-04-07T19:16:11.160Z,102049.28
2023-04-07T19:18:39.431Z,102044.66
2023-04-07T19:21:07.961Z,102048.16
2023-04-07T19:23:36.239Z,102050.88
2023-04-07T19:26:04.987Z,102050.06
2023-04-07T19:28:34.842Z,102051.97
2023-04-07T19:31:03.180Z,102055.47
2023-04-07T19:33:31.573Z,102057.41
2023-04-07T19:35:59.852Z,102051.97
2023-04-07T19:38:28.114Z,102064.72
2023-04-07T19:40:56.484Z,102063.59
2023-04-07T19:43:24.838Z,102060.91
2023-04-07T19:45:55.148Z,102067.91
2023-04-07T19:48:23.611Z,102069.81
2023-04-07T19:50:52.554Z,102066.66
2023-04-07T19:53:21.937Z,102070.47
2023-04-07T19:55:50.588Z,102082.38
2023-04-07T19:58:18.916Z,102076.50
2023-04-07T20:00:49.811Z,102083.50
2023-04-07T20:03:20.852Z,102078.41
2023-04-07T20:05:49.560Z,102081.91
2023-04-07T20:08:17.830Z,102080.63
2023-04-07T20:10:46.322Z,102088.28
2023-04-07T20:13:14.593Z,102084.75
2023-04-07T20:15:44.018Z,102088.28
2023-04-07T20:18:12.410Z,102094.00
2023-04-07T20:20:42.097Z,102094.47
2023-04-07T20:23:10.830Z,102090.66
2023-04-07T20:25:39.558Z,102097.19
2023-04-07T20:28:07.811Z,102091.78
2023-04-07T20:30:36.072Z,102098.28
2023-04-07T20:33:04.482Z,102097.81
2023-04-07T20:35:32.855Z,102090.81
2023-04-07T20:38:02.810Z,102098.44
2023-04-07T20:40:31.768Z,102103.03
2023-04-07T20:43:00.066Z,102097.19
2023-04-07T20:45:28.562Z,102108.31
2023-04-07T20:47:56.964Z,102108.31
2023-04-07T20:50:25.782Z,102101.78
2023-04-07T20:52:54.120Z,102108.91
2023-04-07T20:55:27.157Z,102111.81
2023-04-07T20:57:55.434Z,102107.00
2023-04-07T21:00:23.924Z,102115.13
2023-04-07T21:02:52.296Z,102117.81
2023-04-07T21:05:20.884Z,102105.72
2023-04-07T21:07:49.526Z,102105.25
2023-04-07T21:10:18.066Z,102112.56
2023-04-07T21:12:47.650Z,102110.66
2023-04-07T21:15:15.958Z,102109.84
2023-04-07T21:17:44.265Z,102117.19
2023-04-07T21:20:13.390Z,102116.38
2023-04-07T21:22:41.731Z,102115.59
2023-04-07T21:25:11.110Z,102112.09
2023-04-07T21:27:39.318Z,102114.31
2023-04-07T21:30:10.734Z,102111.59
2023-04-07T21:32:39.023Z,102109.69
2023-04-07T21:35:08.259Z,102118.13
2023-04-07T21:37:36.488Z,102124.31
2023-04-07T21:40:05.340Z,102121.63
2023-04-07T21:42:33.561Z,102112.72
2023-04-07T21:45:02.398Z,102121.63
2023-04-07T21:47:32.032Z,102116.22
2023-04-07T21:50:00.530Z,102130.53
2023-04-07T21:52:28.986Z,102123.53
2023-04-07T21:54:57.277Z,102121.91
2023-04-07T21:57:25.890Z,102122.69
2023-04-07T21:59:54.144Z,102122.69
2023-04-07T22:02:22.496Z,102132.44
2023-04-07T22:04:52.417Z,102139.75
2023-04-07T22:07:20.725Z,102134.34
2023-04-07T22:09:49.397Z,102126.53
2023-04-07T22:12:17.635Z,102133.03
2023-04-07T22:14:46.008Z,102133.38
2023-04-07T22:17:14.234Z,102135.28
2023-04-07T22:19:42.432Z,102138.31
2023-04-07T22:22:11.972Z,102130.19
2023-04-07T22:24:40.239Z,102134.78
2023-04-07T22:27:08.618Z,102133.97
2023-04-07T22:29:36.981Z,102137.78
2023-04-07T22:32:05.799Z,102133.19
2023-04-07T22:34:34.011Z,102133.19
2023-04-07T22:37:02.206Z,102133.97
2023-04-07T22:39:31.819Z,102142.88
2023-04-07T22:42:00.004Z,102138.59
2023-04-07T22:44:28.704Z,102140.19
2023-04-07T22:46:57.470Z,102145.59
2023-04-07T22:49:25.855Z,102144.78
2023-04-07T22:51:57.073Z,102136.19
2023-04-07T22:54:25.387Z,102154.00
2023-04-07T22:56:55.138Z,102146.69
2023-04-07T22:59:23.331Z,102144.78
2023-04-07T23:01:52.106Z,102144.78
2023-04-07T23:04:22.790Z,102142.09
2023-04-07T23:06:53.866Z,102144.78
2023-04-07T23:09:22.103Z,102150.19
2023-04-07T23:11:50.310Z,102153.69
2023-04-07T23:14:20.110Z,102148.59
2023-04-07T23:16:48.305Z,102149.41
2023-04-07T23:19:16.512Z,102152.91
2023-04-07T23:21:45.094Z,102146.22
2023-04-07T23:24:13.397Z,102147.00
2023-04-07T23:26:41.563Z,102158.13
2023-04-07T23:29:09.862Z,102155.78
2023-04-07T23:31:39.483Z,102155.28
2023-04-07T23:34:07.730Z,102160.69
2023-04-07T23:36:36.620Z,102164.47
2023-04-07T23:39:04.975Z,102162.25
2023-04-07T23:41:33.316Z,102161.47
2023-04-07T23:44:01.596Z,102165.28
2023-04-07T23:46:29.836Z,102170.69
2023-04-07T23:48:59.334Z,102169.88
2023-04-07T23:51:27.697Z,102171.16
2023-04-07T23:53:55.863Z,102181.81
2023-04-07T23:56:25.017Z,102170.53
2023-04-07T23:58:53.191Z,102174.03
